createdAt,value
2023-01-17T00:00:06.103Z,8.20
2023-01-17T00:01:06.033Z,7.70
2023-01-17T00:02:06.025Z,8.30
2023-01-17T00:03:06.009Z,7.90
2023-01-17T00:04:06.056Z,8.00
2023-01-17T00:05:06.007Z,8.90
2023-01-17T00:06:05.971Z,7.80
2023-01-17T00:07:05.960Z,8.00
2023-01-17T00:08:05.968Z,7.20
2023-01-17T00:09:05.942Z,8.30
2023-01-17T00:10:05.950Z,8.30
2023-01-17T00:11:05.923Z,7.40
2023-01-17T00:12:05.923Z,7.30
2023-01-17T00:13:05.921Z,8.20
2023-01-17T00:14:05.884Z,7.00
2023-01-17T00:15:05.886Z,6.60
2023-01-17T00:16:05.890Z,6.80
2023-01-17T00:17:05.868Z,6.10
2023-01-17T00:18:05.839Z,6.70
2023-01-17T00:19:05.831Z,6.90
2023-01-17T00:20:05.874Z,6.70
2023-01-17T00:21:05.816Z,7.00
2023-01-17T00:22:05.802Z,7.00
2023-01-17T00:23:05.821Z,6.90
2023-01-17T00:24:05.791Z,7.10
2023-01-17T00:25:05.779Z,7.20
2023-01-17T00:26:05.824Z,6.50
2023-01-17T00:27:05.747Z,6.50
2023-01-17T00:28:05.763Z,6.20
2023-01-17T00:29:05.726Z,6.60
2023-01-17T00:30:05.727Z,6.70
2023-01-17T00:31:05.827Z,6.20
2023-01-17T00:32:05.690Z,6.70
2023-01-17T00:33:05.712Z,6.00
2023-01-17T00:34:05.687Z,6.20
2023-01-17T00:35:05.655Z,6.40
2023-01-17T00:36:05.676Z,6.00
2023-01-17T00:37:05.636Z,6.50
2023-01-17T00:38:05.771Z,6.20
2023-01-17T00:39:05.611Z,6.40
2023-01-17T00:40:05.605Z,6.30
2023-01-17T00:41:05.633Z,5.30
2023-01-17T00:42:05.613Z,5.80
2023-01-17T00:43:05.603Z,5.80
2023-01-17T00:44:13.211Z,6.00
2023-01-17T00:45:05.574Z,5.70
2023-01-17T00:46:05.538Z,5.90
2023-01-17T00:47:05.540Z,5.70
2023-01-17T00:48:05.517Z,5.10
2023-01-17T00:49:05.529Z,5.10
2023-01-17T00:50:05.508Z,5.30
2023-01-17T00:51:05.504Z,5.00
2023-01-17T00:52:05.500Z,5.50
2023-01-17T00:53:05.463Z,5.30
2023-01-17T00:54:05.477Z,4.80
2023-01-17T00:55:05.452Z,5.00
2023-01-17T00:56:05.449Z,4.60
2023-01-17T00:57:05.417Z,5.70
2023-01-17T00:58:05.411Z,5.60
2023-01-17T00:59:05.400Z,5.10
2023-01-17T01:00:05.404Z,5.20
2023-01-17T01:01:06.521Z,5.00
2023-01-17T01:02:05.450Z,5.00
2023-01-17T01:03:05.373Z,5.10
2023-01-17T01:04:05.363Z,4.90
2023-01-17T01:05:05.350Z,4.90
2023-01-17T01:06:05.349Z,5.10
2023-01-17T01:07:05.328Z,5.00
2023-01-17T01:08:05.331Z,5.40
2023-01-17T01:09:05.302Z,5.10
2023-01-17T01:10:05.279Z,5.20
2023-01-17T01:11:05.296Z,5.00
2023-01-17T01:12:05.262Z,4.80
2023-01-17T01:13:05.267Z,4.50
2023-01-17T01:14:05.263Z,4.70
2023-01-17T01:15:05.250Z,4.50
2023-01-17T01:16:05.265Z,4.50
2023-01-17T01:17:05.217Z,4.50
2023-01-17T01:18:05.202Z,4.60
2023-01-17T01:19:05.190Z,4.70
2023-01-17T01:20:05.179Z,4.20
2023-01-17T01:21:05.171Z,4.70
2023-01-17T01:22:05.151Z,4.30
2023-01-17T01:23:05.149Z,4.10
2023-01-17T01:24:05.148Z,4.40
2023-01-17T01:25:05.140Z,3.70
2023-01-17T01:26:05.125Z,4.20
2023-01-17T01:27:05.095Z,4.20
2023-01-17T01:28:05.087Z,4.10
2023-01-17T01:29:05.072Z,3.90
2023-01-17T01:30:05.082Z,4.30
2023-01-17T01:31:05.058Z,4.20
2023-01-17T01:32:05.055Z,4.40
2023-01-17T01:33:05.057Z,3.80
2023-01-17T01:34:05.033Z,3.90
2023-01-17T01:35:05.020Z,4.00
2023-01-17T01:36:05.015Z,4.40
2023-01-17T01:37:05.024Z,4.00
2023-01-17T01:38:04.985Z,3.70
2023-01-17T01:39:04.969Z,4.00
2023-01-17T01:40:04.993Z,4.20
2023-01-17T01:41:04.960Z,4.00
2023-01-17T01:42:04.940Z,4.30
2023-01-17T01:43:04.949Z,3.90
2023-01-17T01:44:04.939Z,3.90
2023-01-17T01:45:04.916Z,3.70
2023-01-17T01:46:04.959Z,4.10
2023-01-17T01:47:04.897Z,3.90
2023-01-17T01:48:04.924Z,4.20
2023-01-17T01:49:04.859Z,4.10
2023-01-17T01:50:04.861Z,4.40
2023-01-17T01:51:04.850Z,4.20
2023-01-17T01:52:04.827Z,3.60
2023-01-17T01:53:04.831Z,3.80
2023-01-17T01:54:04.817Z,4.00
2023-01-17T01:55:04.792Z,4.30
2023-01-17T01:56:04.809Z,4.10
2023-01-17T01:57:04.793Z,3.90
2023-01-17T01:58:04.773Z,4.20
2023-01-17T01:59:04.749Z,3.80
2023-01-17T02:00:04.741Z,4.60
2023-01-17T02:01:04.861Z,4.20
2023-01-17T02:02:04.740Z,3.90
2023-01-17T02:03:04.709Z,4.80
2023-01-17T02:04:04.762Z,4.40
2023-01-17T02:05:04.988Z,4.30
2023-01-17T02:06:04.705Z,4.30
2023-01-17T02:07:04.666Z,4.70
2023-01-17T02:08:04.658Z,4.40
2023-01-17T02:09:04.655Z,4.40
2023-01-17T02:10:04.636Z,4.50
2023-01-17T02:11:04.622Z,4.50
2023-01-17T02:12:04.647Z,4.40
2023-01-17T02:13:04.634Z,4.40
2023-01-17T02:14:04.605Z,4.40
2023-01-17T02:15:04.580Z,4.70
2023-01-17T02:16:04.598Z,4.70
2023-01-17T02:17:04.587Z,4.60
2023-01-17T02:18:04.564Z,4.40
2023-01-17T02:19:04.540Z,4.30
2023-01-17T02:20:04.529Z,4.80
2023-01-17T02:21:04.531Z,4.90
2023-01-17T02:22:04.521Z,4.70
2023-01-17T02:23:04.493Z,4.40
2023-01-17T02:24:04.487Z,4.90
2023-01-17T02:25:04.492Z,4.60
2023-01-17T02:26:04.466Z,4.40
2023-01-17T02:27:04.488Z,4.60
2023-01-17T02:28:04.463Z,3.80
2023-01-17T02:29:04.430Z,4.00
2023-01-17T02:30:04.916Z,3.10
2023-01-17T02:31:04.413Z,3.00
2023-01-17T02:32:04.430Z,3.00
2023-01-17T02:33:04.416Z,2.70
2023-01-17T02:34:04.385Z,2.50
2023-01-17T02:35:04.381Z,3.00
2023-01-17T02:36:04.386Z,2.70
2023-01-17T02:37:04.363Z,2.20
2023-01-17T02:38:04.359Z,2.80
2023-01-17T02:39:04.326Z,2.50
2023-01-17T02:40:04.318Z,2.20
2023-01-17T02:41:04.317Z,2.30
2023-01-17T02:42:04.306Z,2.20
2023-01-17T02:43:04.351Z,1.90
2023-01-17T02:44:04.304Z,2.20
2023-01-17T02:45:11.766Z,2.10
2023-01-17T02:46:04.304Z,2.30
2023-01-17T02:47:04.251Z,2.10
2023-01-17T02:48:04.228Z,2.10
2023-01-17T02:49:04.214Z,2.00
2023-01-17T02:50:04.204Z,2.10
2023-01-17T02:51:04.196Z,2.00
2023-01-17T02:52:04.187Z,2.20
2023-01-17T02:53:04.423Z,2.20
2023-01-17T02:54:04.162Z,2.00
2023-01-17T02:55:04.154Z,2.10
2023-01-17T02:56:04.163Z,2.20
2023-01-17T02:57:04.135Z,1.90
2023-01-17T02:58:04.143Z,2.40
2023-01-17T02:59:04.109Z,2.20
2023-01-17T03:00:04.123Z,2.40
2023-01-17T03:01:04.227Z,2.40
2023-01-17T03:02:04.308Z,2.10
2023-01-17T03:03:04.064Z,2.20
2023-01-17T03:04:04.063Z,2.10
2023-01-17T03:05:04.043Z,2.50
2023-01-17T03:06:04.082Z,2.50
2023-01-17T03:07:04.020Z,2.20
2023-01-17T03:08:04.021Z,2.40
2023-01-17T03:09:04.002Z,2.40
2023-01-17T03:10:04.000Z,2.30
2023-01-17T03:11:03.985Z,2.40
2023-01-17T03:12:03.971Z,2.20
2023-01-17T03:13:03.991Z,1.90
2023-01-17T03:14:03.948Z,2.60
2023-01-17T03:15:03.949Z,2.30
2023-01-17T03:16:03.946Z,2.10
2023-01-17T03:17:03.944Z,1.90
2023-01-17T03:18:03.911Z,1.80
2023-01-17T03:19:03.924Z,1.60
2023-01-17T03:20:03.912Z,1.70
2023-01-17T03:21:03.872Z,1.50
2023-01-17T03:22:03.880Z,1.40
2023-01-17T03:23:03.851Z,1.40
2023-01-17T03:24:03.857Z,1.30
2023-01-17T03:25:03.835Z,1.50
2023-01-17T03:26:03.826Z,1.40
2023-01-17T03:27:03.821Z,1.10
2023-01-17T03:28:03.804Z,1.00
2023-01-17T03:29:03.792Z,0.90
2023-01-17T03:30:03.774Z,0.90
2023-01-17T03:31:03.824Z,0.80
2023-01-17T03:32:03.779Z,0.70
2023-01-17T03:33:03.752Z,0.90
2023-01-17T03:34:03.743Z,0.60
2023-01-17T03:35:03.714Z,0.90
2023-01-17T03:36:03.714Z,0.80
2023-01-17T03:37:03.694Z,0.60
2023-01-17T03:38:03.687Z,0.60
2023-01-17T03:39:03.689Z,0.60
2023-01-17T03:40:03.668Z,0.60
2023-01-17T03:41:03.652Z,0.50
2023-01-17T03:42:03.653Z,0.50
2023-01-17T03:43:03.629Z,0.50
2023-01-17T03:44:03.635Z,0.40
2023-01-17T03:45:03.627Z,0.40
2023-01-17T03:46:03.660Z,0.40
2023-01-17T03:47:03.606Z,0.50
2023-01-17T03:48:03.617Z,0.40
2023-01-17T03:49:03.571Z,0.40
2023-01-17T03:50:03.569Z,0.50
2023-01-17T03:51:03.559Z,0.40
2023-01-17T03:52:03.543Z,0.50
2023-01-17T03:53:03.534Z,0.60
2023-01-17T03:54:03.533Z,0.50
2023-01-17T03:55:03.518Z,0.40
2023-01-17T03:56:03.505Z,0.50
2023-01-17T03:57:03.506Z,0.40
2023-01-17T03:58:03.479Z,0.40
2023-01-17T03:59:03.579Z,0.50
2023-01-17T04:00:03.466Z,0.40
2023-01-17T04:01:03.533Z,0.50
2023-01-17T04:02:03.575Z,0.40
2023-01-17T04:03:03.431Z,0.50
2023-01-17T04:04:03.441Z,0.40
2023-01-17T04:05:03.414Z,0.40
2023-01-17T04:06:03.404Z,0.60
2023-01-17T04:07:03.380Z,0.50
2023-01-17T04:08:03.364Z,0.50
2023-01-17T04:09:03.374Z,0.50
2023-01-17T04:10:03.350Z,0.50
2023-01-17T04:11:03.349Z,0.50
2023-01-17T04:12:03.344Z,0.40
2023-01-17T04:13:03.314Z,0.50
2023-01-17T04:14:03.326Z,0.50
2023-01-17T04:15:03.293Z,0.40
2023-01-17T04:16:03.292Z,0.40
2023-01-17T04:17:03.263Z,0.50
2023-01-17T04:18:03.262Z,0.40
2023-01-17T04:19:03.257Z,0.50
2023-01-17T04:20:03.256Z,0.40
2023-01-17T04:21:03.246Z,0.30
2023-01-17T04:22:03.220Z,0.50
2023-01-17T04:23:03.221Z,0.40
2023-01-17T04:24:03.191Z,0.30
2023-01-17T04:25:03.199Z,0.50
2023-01-17T04:26:03.204Z,0.40
2023-01-17T04:27:03.160Z,0.40
2023-01-17T04:28:03.149Z,0.40
2023-01-17T04:29:03.209Z,0.40
2023-01-17T04:30:03.136Z,0.40
2023-01-17T04:31:03.183Z,0.30
2023-01-17T04:32:03.135Z,0.40
2023-01-17T04:33:03.095Z,0.30
2023-01-17T04:34:03.082Z,0.30
2023-01-17T04:35:03.114Z,0.50
2023-01-17T04:36:03.108Z,0.40
2023-01-17T04:37:03.052Z,0.70
2023-01-17T04:38:03.051Z,0.50
2023-01-17T04:39:03.045Z,0.40
2023-01-17T04:40:03.036Z,0.40
2023-01-17T04:41:03.008Z,0.60
2023-01-17T04:42:03.025Z,0.40
2023-01-17T04:43:03.006Z,0.30
2023-01-17T04:44:02.982Z,0.50
2023-01-17T04:45:02.965Z,0.40
2023-01-17T04:46:10.471Z,0.30
2023-01-17T04:47:02.943Z,0.40
2023-01-17T04:48:02.941Z,0.40
2023-01-17T04:49:02.938Z,0.30
2023-01-17T04:50:02.917Z,0.30
2023-01-17T04:51:02.915Z,0.40
2023-01-17T04:52:02.915Z,0.20
2023-01-17T04:53:02.902Z,0.30
2023-01-17T04:54:02.872Z,0.40
2023-01-17T04:55:02.858Z,0.20
2023-01-17T04:56:02.878Z,0.30
2023-01-17T04:57:02.850Z,0.40
2023-01-17T04:58:02.825Z,0.30
2023-01-17T04:59:02.830Z,0.30
2023-01-17T05:00:02.823Z,0.30
2023-01-17T05:01:02.837Z,0.30
2023-01-17T05:02:02.867Z,0.20
2023-01-17T05:03:02.784Z,0.40
2023-01-17T05:04:02.763Z,0.40
2023-01-17T05:05:02.786Z,0.30
2023-01-17T05:06:02.758Z,0.40
2023-01-17T05:07:02.743Z,0.40
2023-01-17T05:08:02.743Z,0.20
2023-01-17T05:09:02.720Z,0.40
2023-01-17T05:10:02.724Z,0.40
2023-01-17T05:11:02.697Z,0.40
2023-01-17T05:12:02.691Z,0.40
2023-01-17T05:13:02.686Z,0.40
2023-01-17T05:14:02.657Z,0.30
2023-01-17T05:15:02.653Z,0.50
2023-01-17T05:16:02.665Z,0.40
2023-01-17T05:17:02.639Z,0.30
2023-01-17T05:18:02.634Z,0.40
2023-01-17T05:19:02.601Z,0.40
2023-01-17T05:20:02.599Z,0.30
2023-01-17T05:21:02.617Z,0.40
2023-01-17T05:22:02.569Z,0.40
2023-01-17T05:23:02.583Z,0.50
2023-01-17T05:24:02.572Z,0.30
2023-01-17T05:25:02.580Z,0.60
2023-01-17T05:26:02.533Z,0.30
2023-01-17T05:27:02.522Z,0.40
2023-01-17T05:28:03.470Z,0.50
2023-01-17T05:29:02.510Z,0.40
2023-01-17T05:30:02.478Z,0.40
2023-01-17T05:31:02.561Z,0.50
2023-01-17T05:32:02.480Z,0.50
2023-01-17T05:33:02.475Z,0.50
2023-01-17T05:34:02.458Z,0.50
2023-01-17T05:35:02.446Z,0.40
2023-01-17T05:36:02.436Z,0.30
2023-01-17T05:37:02.432Z,0.40
2023-01-17T05:38:02.415Z,0.60
2023-01-17T05:39:02.385Z,0.40
2023-01-17T05:40:02.403Z,0.40
2023-01-17T05:41:02.370Z,0.60
2023-01-17T05:42:02.370Z,0.60
2023-01-17T05:43:02.364Z,0.70
2023-01-17T05:44:02.331Z,0.80
2023-01-17T05:45:02.324Z,0.80
2023-01-17T05:46:02.362Z,0.80
2023-01-17T05:47:02.300Z,0.90
2023-01-17T05:48:02.304Z,1.00
2023-01-17T05:49:02.281Z,0.80
2023-01-17T05:50:02.296Z,0.90
2023-01-17T05:51:02.284Z,1.00
2023-01-17T05:52:02.253Z,1.00
2023-01-17T05:53:02.263Z,1.10
2023-01-17T05:54:02.236Z,1.10
2023-01-17T05:55:02.217Z,1.10
2023-01-17T05:56:02.237Z,1.20
2023-01-17T05:57:02.200Z,1.30
2023-01-17T05:58:02.183Z,1.10
2023-01-17T05:59:02.177Z,1.10
2023-01-17T06:00:02.188Z,1.30
2023-01-17T06:01:02.187Z,1.20
2023-01-17T06:02:02.148Z,1.60
2023-01-17T06:03:02.200Z,1.60
2023-01-17T06:04:02.121Z,1.40
2023-01-17T06:05:03.558Z,1.50
2023-01-17T06:06:02.094Z,1.40
2023-01-17T06:07:02.087Z,1.60
2023-01-17T06:08:02.070Z,1.70
2023-01-17T06:09:02.100Z,1.90
2023-01-17T06:10:02.068Z,1.50
2023-01-17T06:11:02.047Z,1.50
2023-01-17T06:12:02.062Z,1.70
2023-01-17T06:13:02.052Z,1.80
2023-01-17T06:14:02.036Z,2.10
2023-01-17T06:15:02.016Z,1.80
2023-01-17T06:16:02.053Z,1.70
2023-01-17T06:17:02.008Z,1.90
2023-01-17T06:18:01.990Z,2.10
2023-01-17T06:19:01.963Z,1.80
2023-01-17T06:20:02.008Z,1.90
2023-01-17T06:21:01.947Z,2.10
2023-01-17T06:22:01.920Z,2.60
2023-01-17T06:23:01.922Z,2.20
2023-01-17T06:24:04.092Z,2.10
2023-01-17T06:25:01.894Z,2.10
2023-01-17T06:26:01.918Z,2.40
2023-01-17T06:27:01.893Z,2.30
2023-01-17T06:28:01.908Z,2.40
2023-01-17T06:29:01.852Z,2.50
2023-01-17T06:30:01.857Z,2.50
2023-01-17T06:31:01.841Z,2.40
2023-01-17T06:32:01.925Z,2.40
2023-01-17T06:33:01.834Z,2.60
2023-01-17T06:34:01.812Z,2.70
2023-01-17T06:35:01.790Z,2.80
2023-01-17T06:36:01.789Z,2.80
2023-01-17T06:37:01.775Z,2.50
2023-01-17T06:38:01.755Z,2.60
2023-01-17T06:39:01.772Z,2.50
2023-01-17T06:40:01.733Z,3.10
2023-01-17T06:41:01.750Z,2.70
2023-01-17T06:42:01.729Z,3.20
2023-01-17T06:43:01.784Z,2.70
2023-01-17T06:44:01.726Z,3.20
2023-01-17T06:45:01.715Z,3.20
2023-01-17T06:46:01.671Z,3.00
2023-01-17T06:47:09.170Z,2.80
2023-01-17T06:48:01.644Z,3.00
2023-01-17T06:49:01.631Z,2.80
2023-01-17T06:50:01.690Z,3.10
2023-01-17T06:51:01.636Z,3.20
2023-01-17T06:52:01.606Z,3.10
2023-01-17T06:53:01.605Z,2.90
2023-01-17T06:54:01.656Z,2.90
2023-01-17T06:55:01.659Z,3.20
2023-01-17T06:56:01.635Z,2.60
2023-01-17T06:57:01.657Z,2.60
2023-01-17T06:58:01.549Z,3.20
2023-01-17T06:59:01.530Z,3.20
2023-01-17T07:00:01.631Z,2.90
2023-01-17T07:01:01.649Z,3.30
2023-01-17T07:02:01.537Z,2.80
2023-01-17T07:03:01.495Z,2.90
2023-01-17T07:04:01.569Z,3.20
2023-01-17T07:05:01.709Z,3.00
2023-01-17T07:06:01.680Z,3.20
2023-01-17T07:07:01.458Z,3.00
2023-01-17T07:08:01.447Z,3.40
2023-01-17T07:09:01.426Z,3.40
2023-01-17T07:10:01.415Z,3.50
2023-01-17T07:11:01.401Z,3.30
2023-01-17T07:12:01.419Z,3.20
2023-01-17T07:13:01.392Z,3.60
2023-01-17T07:14:01.365Z,3.40
2023-01-17T07:15:01.364Z,3.70
2023-01-17T07:16:01.434Z,3.60
2023-01-17T07:17:01.338Z,3.50
2023-01-17T07:18:01.343Z,3.50
2023-01-17T07:19:01.334Z,4.00
2023-01-17T07:20:01.311Z,4.10
2023-01-17T07:21:01.342Z,3.90
2023-01-17T07:22:01.278Z,3.80
2023-01-17T07:23:01.276Z,4.70
2023-01-17T07:24:01.257Z,4.00
2023-01-17T07:25:01.278Z,4.20
2023-01-17T07:26:01.270Z,4.00
2023-01-17T07:27:01.271Z,4.40
2023-01-17T07:28:01.258Z,4.50
2023-01-17T07:29:01.371Z,4.70
2023-01-17T07:30:01.210Z,4.40
2023-01-17T07:31:01.269Z,3.70
2023-01-17T07:32:01.190Z,4.80
2023-01-17T07:33:01.185Z,4.00
2023-01-17T07:34:01.156Z,4.20
2023-01-17T07:35:01.153Z,4.50
2023-01-17T07:36:01.191Z,4.40
2023-01-17T07:37:01.208Z,4.30
2023-01-17T07:38:01.141Z,4.70
2023-01-17T07:39:01.127Z,4.60
2023-01-17T07:40:01.119Z,4.70
2023-01-17T07:41:01.107Z,4.20
2023-01-17T07:42:01.069Z,4.70
2023-01-17T07:43:01.068Z,4.50
2023-01-17T07:44:01.059Z,4.40
2023-01-17T07:45:01.072Z,4.70
2023-01-17T07:46:02.240Z,4.80
2023-01-17T07:47:01.031Z,4.70
2023-01-17T07:48:01.043Z,5.50
2023-01-17T07:49:01.014Z,5.40
2023-01-17T07:50:00.991Z,4.90
2023-01-17T07:51:01.016Z,4.90
2023-01-17T07:52:00.985Z,4.60
2023-01-17T07:53:00.964Z,4.50
2023-01-17T07:54:00.942Z,4.50
2023-01-17T07:55:00.962Z,4.90
2023-01-17T07:56:00.949Z,4.40
2023-01-17T07:57:00.954Z,5.00
2023-01-17T07:58:02.970Z,5.00
2023-01-17T07:59:00.940Z,4.90
2023-01-17T08:00:00.934Z,4.70
2023-01-17T08:01:00.985Z,5.20
2023-01-17T08:02:01.156Z,4.80
2023-01-17T08:03:00.867Z,5.30
2023-01-17T08:04:00.918Z,4.70
2023-01-17T08:05:00.839Z,5.00
2023-01-17T08:06:00.819Z,4.50
2023-01-17T08:07:00.820Z,4.90
2023-01-17T08:08:00.820Z,4.90
2023-01-17T08:09:00.848Z,4.60
2023-01-17T08:10:00.824Z,4.60
2023-01-17T08:11:00.774Z,4.90
2023-01-17T08:12:00.756Z,5.30
2023-01-17T08:13:00.744Z,4.80
2023-01-17T08:14:00.738Z,5.10
2023-01-17T08:15:00.717Z,4.40
2023-01-17T08:16:00.728Z,4.50
2023-01-17T08:17:00.704Z,4.70
2023-01-17T08:18:00.775Z,4.60
2023-01-17T08:19:00.681Z,5.50
2023-01-17T08:20:00.712Z,4.20
2023-01-17T08:21:00.801Z,4.80
2023-01-17T08:22:00.649Z,4.40
2023-01-17T08:23:00.632Z,4.40
2023-01-17T08:24:00.621Z,4.50
2023-01-17T08:25:00.627Z,3.80
2023-01-17T08:26:00.766Z,4.70
2023-01-17T08:27:00.607Z,5.00
2023-01-17T08:28:00.602Z,4.60
2023-01-17T08:29:00.755Z,4.70
2023-01-17T08:30:00.581Z,4.60
2023-01-17T08:31:00.589Z,4.30
2023-01-17T08:32:00.558Z,4.30
2023-01-17T08:33:00.642Z,4.10
2023-01-17T08:34:00.505Z,4.50
2023-01-17T08:35:00.509Z,4.30
2023-01-17T08:36:00.545Z,4.80
2023-01-17T08:37:00.508Z,4.50
2023-01-17T08:38:00.522Z,4.70
2023-01-17T08:39:00.499Z,4.70
2023-01-17T08:40:00.482Z,4.50
2023-01-17T08:41:00.525Z,4.30
2023-01-17T08:42:00.523Z,4.40
2023-01-17T08:43:00.457Z,5.00
2023-01-17T08:44:00.444Z,4.90
2023-01-17T08:45:00.431Z,4.10
2023-01-17T08:46:00.526Z,4.70
2023-01-17T08:47:00.375Z,4.50
2023-01-17T08:48:09.095Z,4.70
2023-01-17T08:49:00.361Z,4.80
2023-01-17T08:50:00.420Z,4.70
2023-01-17T08:51:00.325Z,4.60
2023-01-17T08:52:00.639Z,4.50
2023-01-17T08:53:01.427Z,4.90
2023-01-17T08:54:00.297Z,4.20
2023-01-17T08:55:00.289Z,4.70
2023-01-17T08:56:01.112Z,4.60
2023-01-17T08:57:00.411Z,4.40
2023-01-17T08:58:00.352Z,4.90
2023-01-17T08:59:01.006Z,5.20
2023-01-17T09:00:00.243Z,4.80
2023-01-17T09:01:00.360Z,4.60
2023-01-17T09:02:00.603Z,4.40
2023-01-17T09:03:00.236Z,4.50
2023-01-17T09:04:00.237Z,4.20
2023-01-17T09:05:00.175Z,4.10
2023-01-17T09:06:00.163Z,4.30
2023-01-17T09:07:00.239Z,4.50
2023-01-17T09:08:03.066Z,4.50
2023-01-17T09:09:00.157Z,4.60
2023-01-17T09:10:00.166Z,4.70
2023-01-17T09:11:00.125Z,4.10
2023-01-17T09:12:00.134Z,4.30
2023-01-17T09:13:00.126Z,4.30
2023-01-17T09:14:00.141Z,4.10
2023-01-17T09:15:00.114Z,4.20
2023-01-17T09:16:00.076Z,4.30
2023-01-17T09:17:00.048Z,4.30
2023-01-17T09:18:00.051Z,4.70
2023-01-17T09:19:00.075Z,4.50
2023-01-17T09:20:00.017Z,4.30
2023-01-17T09:21:00.036Z,4.90
2023-01-17T09:21:59.997Z,4.50
2023-01-17T09:23:00.004Z,4.60
2023-01-17T09:24:00.011Z,4.50
2023-01-17T09:24:59.965Z,4.90
2023-01-17T09:25:59.977Z,4.30
2023-01-17T09:26:59.939Z,4.70
2023-01-17T09:27:59.940Z,4.60
2023-01-17T09:28:59.917Z,5.30
2023-01-17T09:29:59.927Z,4.60
2023-01-17T09:31:00.550Z,4.70
2023-01-17T09:31:59.889Z,5.20
2023-01-17T09:32:59.878Z,4.90
2023-01-17T09:33:59.865Z,5.20
2023-01-17T09:34:59.871Z,5.50
2023-01-17T09:35:59.857Z,4.50
2023-01-17T09:36:59.991Z,5.30
2023-01-17T09:37:59.841Z,5.10
2023-01-17T09:38:59.837Z,5.40
2023-01-17T09:39:59.878Z,5.20
2023-01-17T09:40:59.790Z,5.50
2023-01-17T09:41:59.783Z,5.60
2023-01-17T09:42:59.783Z,5.70
2023-01-17T09:43:59.774Z,5.80
2023-01-17T09:44:59.779Z,5.60
2023-01-17T09:45:59.773Z,5.30
2023-01-17T09:46:59.778Z,5.80
2023-01-17T09:47:59.719Z,5.50
2023-01-17T09:48:59.701Z,5.70
2023-01-17T09:49:59.787Z,6.10
2023-01-17T09:50:59.768Z,6.60
2023-01-17T09:51:59.697Z,6.70
2023-01-17T09:52:59.658Z,6.00
2023-01-17T09:53:59.671Z,6.90
2023-01-17T09:54:59.673Z,6.20
2023-01-17T09:55:59.654Z,6.50
2023-01-17T09:56:59.619Z,6.40
2023-01-17T09:57:59.606Z,6.40
2023-01-17T09:58:59.605Z,6.30
2023-01-17T10:00:03.521Z,6.30
2023-01-17T10:00:59.726Z,6.70
2023-01-17T10:01:59.790Z,6.10
2023-01-17T10:02:59.583Z,6.60
2023-01-17T10:03:59.615Z,6.80
2023-01-17T10:04:59.584Z,6.40
2023-01-17T10:05:59.535Z,6.80
2023-01-17T10:06:59.513Z,6.20
2023-01-17T10:07:59.525Z,7.00
2023-01-17T10:08:59.543Z,6.90
2023-01-17T10:09:59.492Z,7.20
2023-01-17T10:10:59.503Z,6.90
2023-01-17T10:11:59.517Z,7.00
2023-01-17T10:12:59.456Z,7.20
2023-01-17T10:13:59.452Z,7.70
2023-01-17T10:14:59.452Z,7.10
2023-01-17T10:16:00.204Z,7.30
2023-01-17T10:16:59.500Z,7.90
2023-01-17T10:17:59.446Z,7.70
2023-01-17T10:18:59.410Z,8.20
2023-01-17T10:19:59.371Z,7.90
2023-01-17T10:20:59.357Z,7.60
2023-01-17T10:21:59.367Z,8.30
2023-01-17T10:22:59.337Z,8.30
2023-01-17T10:23:59.458Z,8.30
2023-01-17T10:24:59.751Z,8.30
2023-01-17T10:25:59.324Z,9.00
2023-01-17T10:26:59.369Z,8.80
2023-01-17T10:27:59.323Z,8.40
2023-01-17T10:28:59.300Z,9.30
2023-01-17T10:29:59.291Z,8.60
2023-01-17T10:30:59.337Z,8.90
2023-01-17T10:31:59.259Z,8.70
2023-01-17T10:32:59.317Z,8.60
2023-01-17T10:33:59.241Z,8.30
2023-01-17T10:34:59.225Z,8.90
2023-01-17T10:35:59.296Z,9.40
2023-01-17T10:36:59.183Z,9.00
2023-01-17T10:37:59.200Z,9.10
2023-01-17T10:38:59.183Z,8.90
2023-01-17T10:39:59.182Z,9.50
2023-01-17T10:40:59.140Z,9.60
2023-01-17T10:41:59.175Z,9.50
2023-01-17T10:42:59.205Z,9.70
2023-01-17T10:43:59.168Z,9.90
2023-01-17T10:44:59.202Z,10.00
2023-01-17T10:45:59.162Z,9.10
2023-01-17T10:46:59.099Z,9.30
2023-01-17T10:47:59.103Z,9.90
2023-01-17T10:51:54.233Z,8.80
2023-01-17T10:52:31.701Z,9.90
2023-01-17T10:53:31.668Z,10.30
2023-01-17T10:54:31.662Z,9.90
2023-01-17T10:55:31.668Z,9.60
2023-01-17T10:56:31.648Z,10.00
2023-01-17T10:57:31.627Z,9.80
2023-01-17T10:58:31.660Z,9.40
2023-01-17T10:59:31.683Z,9.50
2023-01-17T11:00:31.592Z,9.60
2023-01-17T11:01:31.748Z,8.90
2023-01-17T11:02:31.724Z,9.80
2023-01-17T11:03:32.089Z,9.20
2023-01-17T11:04:31.531Z,9.50
2023-01-17T11:05:31.722Z,9.50
2023-01-17T11:06:31.521Z,10.10
2023-01-17T11:07:31.600Z,11.00
2023-01-17T11:08:31.550Z,10.90
2023-01-17T11:09:31.591Z,11.20
2023-01-17T11:10:31.471Z,10.70
2023-01-17T11:11:31.467Z,11.40
2023-01-17T11:12:31.467Z,11.00
2023-01-17T11:13:31.463Z,12.20
2023-01-17T11:14:31.448Z,11.70
2023-01-17T11:15:31.507Z,12.80
2023-01-17T11:16:31.463Z,12.50
2023-01-17T11:17:31.396Z,14.30
2023-01-17T11:18:31.382Z,13.70
2023-01-17T11:19:31.443Z,13.90
2023-01-17T11:20:34.105Z,14.20
2023-01-17T11:21:31.345Z,14.00
2023-01-17T11:22:31.372Z,14.50
2023-01-17T11:23:31.378Z,13.40
2023-01-17T11:24:31.311Z,14.00
2023-01-17T11:25:31.344Z,14.60
2023-01-17T11:26:31.317Z,14.00
2023-01-17T11:27:31.340Z,14.00
2023-01-17T11:28:31.311Z,14.00
2023-01-17T11:29:31.281Z,14.30
2023-01-17T11:30:31.288Z,14.20
2023-01-17T11:31:31.273Z,14.40
2023-01-17T11:32:31.230Z,12.70
2023-01-17T11:33:31.708Z,12.90
2023-01-17T11:34:31.214Z,13.50
2023-01-17T11:35:31.204Z,13.10
2023-01-17T11:36:31.227Z,12.80
2023-01-17T11:37:31.241Z,11.50
2023-01-17T11:38:31.164Z,11.60
2023-01-17T11:39:31.158Z,10.90
2023-01-17T11:40:31.162Z,11.80
2023-01-17T11:41:31.135Z,10.90
2023-01-17T11:42:31.130Z,10.90
2023-01-17T11:43:31.143Z,11.10
2023-01-17T11:44:31.130Z,10.00
2023-01-17T11:45:31.096Z,9.90
2023-01-17T11:46:31.166Z,9.10
2023-01-17T11:47:31.146Z,10.40
2023-01-17T11:48:31.126Z,9.10
2023-01-17T11:49:31.078Z,10.90
2023-01-17T11:50:31.040Z,8.90
2023-01-17T11:51:31.030Z,9.40
2023-01-17T11:52:31.027Z,9.00
2023-01-17T11:53:31.009Z,8.80
2023-01-17T11:54:30.987Z,9.90
2023-01-17T11:55:31.006Z,9.30
2023-01-17T11:56:30.984Z,9.60
2023-01-17T11:57:30.979Z,9.20
2023-01-17T11:58:30.978Z,9.00
2023-01-17T11:59:30.967Z,9.50
2023-01-17T12:00:30.922Z,10.40
2023-01-17T12:01:30.965Z,9.40
2023-01-17T12:02:30.909Z,9.70
2023-01-17T12:03:30.960Z,10.10
2023-01-17T12:04:30.888Z,8.90
2023-01-17T12:05:30.868Z,9.30
2023-01-17T12:06:30.856Z,9.40
2023-01-17T12:07:30.859Z,9.90
2023-01-17T12:08:30.832Z,9.60
2023-01-17T12:09:30.850Z,9.30
2023-01-17T12:10:30.824Z,9.30
2023-01-17T12:11:30.827Z,9.70
2023-01-17T12:12:30.788Z,9.80
2023-01-17T12:13:30.783Z,9.40
2023-01-17T12:14:30.779Z,9.80
2023-01-17T12:15:31.179Z,9.20
2023-01-17T12:16:30.772Z,9.10
2023-01-17T12:17:30.763Z,9.70
2023-01-17T12:18:30.784Z,9.40
2023-01-17T12:19:30.773Z,9.90
2023-01-17T12:20:30.714Z,9.50
2023-01-17T12:21:30.703Z,9.30
2023-01-17T12:22:30.703Z,9.20
2023-01-17T12:23:30.699Z,9.50
2023-01-17T12:24:30.674Z,8.60
2023-01-17T12:25:30.649Z,8.70
2023-01-17T12:26:30.637Z,8.60
2023-01-17T12:27:30.649Z,8.90
2023-01-17T12:28:30.636Z,9.30
2023-01-17T12:29:30.644Z,8.70
2023-01-17T12:30:30.599Z,8.80
2023-01-17T12:31:30.620Z,8.40
2023-01-17T12:32:30.577Z,8.20
2023-01-17T12:33:30.588Z,8.10
2023-01-17T12:34:30.548Z,7.40
2023-01-17T12:35:30.566Z,8.10
2023-01-17T12:36:30.539Z,7.30
2023-01-17T12:37:30.518Z,7.90
2023-01-17T12:38:32.978Z,7.80
2023-01-17T12:39:30.511Z,7.40
2023-01-17T12:40:30.894Z,7.10
2023-01-17T12:41:30.480Z,7.70
2023-01-17T12:42:30.467Z,7.80
2023-01-17T12:43:30.465Z,7.80
2023-01-17T12:44:30.531Z,7.80
2023-01-17T12:45:30.436Z,8.20
2023-01-17T12:46:30.479Z,8.10
2023-01-17T12:47:30.425Z,7.70
2023-01-17T12:48:30.402Z,8.10
2023-01-17T12:49:30.397Z,8.20
2023-01-17T12:50:30.401Z,7.10
2023-01-17T12:51:37.433Z,7.70
2023-01-17T12:52:30.437Z,7.10
2023-01-17T12:53:30.348Z,7.40
2023-01-17T12:54:30.337Z,7.80
2023-01-17T12:55:30.357Z,7.70
2023-01-17T12:56:30.335Z,7.10
2023-01-17T12:57:30.437Z,7.30
2023-01-17T12:58:30.304Z,7.30
2023-01-17T12:59:30.291Z,7.30
2023-01-17T13:00:30.318Z,7.40
2023-01-17T13:01:30.342Z,7.50
2023-01-17T13:02:30.370Z,7.70
2023-01-17T13:03:30.236Z,7.60
2023-01-17T13:04:30.238Z,7.50
2023-01-17T13:05:30.214Z,7.80
2023-01-17T13:06:30.215Z,7.30
2023-01-17T13:07:30.247Z,7.70
2023-01-17T13:08:30.201Z,7.30
2023-01-17T13:09:30.172Z,8.50
2023-01-17T13:10:31.825Z,8.00
2023-01-17T13:11:30.195Z,8.50
2023-01-17T13:12:30.164Z,8.50
2023-01-17T13:13:30.129Z,8.30
2023-01-17T13:14:30.127Z,8.50
2023-01-17T13:15:30.113Z,8.00
2023-01-17T13:16:30.158Z,8.30
2023-01-17T13:17:30.097Z,8.60
2023-01-17T13:18:30.118Z,9.50